Time;durP1;ratioP1;P1;durP2;ratioP2;P2;SDS_P1;SDS_P2;PMS_P1;PMS_P2;Temp;Humidity;BMP_temperature;BMP_pressure;BME280_temperature;BME280_humidity;BME280_pressure;Samples;Min_cycle;Max_cycle;Signal;HPM_P1;HPM_P2
2022/09/26 00:02:40;0.00;0.00;0.62;0.00;0.00;0.62;2.10;1.20;;;27.40;28.50;;;;;;2229507;62;20364;-61
2022/09/26 00:05:26;0.00;0.00;0.62;0.00;0.00;0.62;2.50;1.50;;;27.40;28.50;;;;;;2230233;62;20368;-61
2022/09/26 00:08:11;0.00;0.00;0.62;0.00;0.00;0.62;2.30;1.30;;;27.40;28.50;;;;;;2229986;62;20393;-61
2022/09/26 00:10:58;0.00;0.00;0.62;0.00;0.00;0.62;1.97;1.30;;;27.40;28.60;;;;;;2229973;62;20369;-62
2022/09/26 00:13:43;0.00;0.00;0.62;0.00;0.00;0.62;2.07;1.33;;;27.40;28.60;;;;;;2230436;62;20360;-61
2022/09/26 00:16:28;0.00;0.00;0.62;0.00;0.00;0.62;2.00;1.40;;;27.40;28.60;;;;;;2229702;62;20748;-61
2022/09/26 00:19:13;0.00;0.00;0.62;0.00;0.00;0.62;2.17;1.57;;;27.40;28.60;;;;;;2230290;62;20422;-61
2022/09/26 00:22:00;0.00;0.00;0.62;0.00;0.00;0.62;1.70;1.37;;;27.40;28.60;;;;;;2229690;62;20388;-61
2022/09/26 00:24:44;0.00;0.00;0.62;0.00;0.00;0.62;2.13;1.23;;;27.40;28.60;;;;;;2229451;62;20357;-61
2022/09/26 00:27:28;0.00;0.00;0.62;0.00;0.00;0.62;2.10;1.47;;;27.40;28.60;;;;;;2230355;62;20392;-61
2022/09/26 00:30:13;0.00;0.00;0.62;0.00;0.00;0.62;2.00;1.30;;;27.40;28.60;;;;;;2230017;62;20394;-61
2022/09/26 00:32:58;0.00;0.00;0.62;0.00;0.00;0.62;1.60;1.00;;;27.40;28.60;;;;;;2230217;62;20377;-61
2022/09/26 00:35:50;0.00;0.00;0.62;0.00;0.00;0.62;1.30;0.80;;;27.40;28.60;;;;;;2236549;62;20663;-60
2022/09/26 00:38:36;0.00;0.00;0.62;0.00;0.00;0.62;15.10;1.40;;;27.40;28.60;;;;;;2239701;61;20403;-60
2022/09/26 00:41:23;0.00;0.00;0.62;0.00;0.00;0.62;1.47;0.97;;;27.40;28.60;;;;;;2237943;62;20411;-61
2022/09/26 00:44:44;0.00;0.00;0.62;0.00;0.00;0.62;1.90;1.20;;;27.40;28.60;;;;;;2240581;62;20662;-61
2022/09/26 00:47:41;0.00;0.00;0.62;0.00;0.00;0.62;1.60;1.10;;;27.40;28.60;;;;;;2237381;62;20391;-61
2022/09/26 00:50:32;0.00;0.00;0.62;0.00;0.00;0.62;2.27;1.23;;;27.40;28.60;;;;;;2238137;62;20364;-60
2022/09/26 00:53:20;0.00;0.00;0.62;0.00;0.00;0.62;2.60;1.20;;;27.40;28.60;;;;;;2237568;62;20360;-61
2022/09/26 00:56:14;0.00;0.00;0.62;0.00;0.00;0.62;1.97;1.40;;;27.40;28.60;;;;;;2240139;62;20374;-61
2022/09/26 00:59:07;0.00;0.00;0.62;0.00;0.00;0.62;2.13;1.33;;;27.40;28.60;;;;;;2240581;61;20749;-61
2022/09/26 01:01:55;0.00;0.00;0.62;0.00;0.00;0.62;2.17;1.30;;;27.40;28.60;;;;;;2239433;62;20367;-61
2022/09/26 01:04:41;0.00;0.00;0.62;0.00;0.00;0.62;1.90;1.07;;;27.40;28.50;;;;;;2238158;62;20359;-61
2022/09/26 01:07:27;0.00;0.00;0.62;0.00;0.00;0.62;2.60;1.03;;;27.40;28.50;;;;;;2237730;62;20734;-61
2022/09/26 01:10:14;0.00;0.00;0.62;0.00;0.00;0.62;1.70;1.10;;;27.40;28.50;;;;;;2236672;62;20447;-61
2022/09/26 01:13:01;0.00;0.00;0.62;0.00;0.00;0.62;1.50;1.10;;;27.30;28.40;;;;;;2238313;62;20380;-61
2022/09/26 01:15:45;0.00;0.00;0.62;0.00;0.00;0.62;1.90;1.07;;;27.40;28.40;;;;;;2239771;62;20494;-61
2022/09/26 01:18:30;0.00;0.00;0.62;0.00;0.00;0.62;1.87;1.50;;;27.40;28.30;;;;;;2237699;62;20387;-61
2022/09/26 01:21:45;0.00;0.00;0.62;0.00;0.00;0.62;1.50;0.90;;;27.30;28.20;;;;;;2238129;62;20436;-61
2022/09/26 01:24:55;0.00;0.00;0.62;0.00;0.00;0.62;1.67;1.00;;;27.30;28.10;;;;;;2235235;62;20451;-61
2022/09/26 01:28:21;0.00;0.00;0.62;0.00;0.00;0.62;2.13;1.20;;;27.30;28.00;;;;;;2238196;62;20459;-61
2022/09/26 01:31:18;0.00;0.00;0.62;0.00;0.00;0.62;1.83;1.20;;;27.30;28.00;;;;;;2239220;62;20407;-61
2022/09/26 01:34:10;0.00;0.00;0.62;0.00;0.00;0.62;1.80;1.23;;;27.20;27.90;;;;;;2238125;62;20626;-61
2022/09/26 01:37:05;0.00;0.00;0.62;0.00;0.00;0.62;1.57;1.03;;;27.30;27.90;;;;;;2233789;62;20389;-61
2022/09/26 01:40:01;0.00;0.00;0.62;0.00;0.00;0.62;2.17;1.13;;;27.20;27.80;;;;;;2235908;62;20397;-61
2022/09/26 01:43:02;0.00;0.00;0.62;0.00;0.00;0.62;1.87;1.00;;;27.20;28.30;;;;;;2236687;62;20388;-61
2022/09/26 01:45:53;0.00;0.00;0.62;0.00;0.00;0.62;1.60;1.00;;;27.20;27.70;;;;;;2232960;62;20720;-61
2022/09/26 01:48:44;0.00;0.00;0.62;0.00;0.00;0.62;1.90;1.10;;;27.10;28.20;;;;;;2233859;62;20445;-61
2022/09/26 01:51:38;0.00;0.00;0.62;0.00;0.00;0.62;2.30;1.07;;;27.10;27.60;;;;;;2233602;62;20579;-61
2022/09/26 01:54:27;0.00;0.00;0.62;0.00;0.00;0.62;2.13;1.30;;;27.10;27.60;;;;;;2233225;62;20433;-61
2022/09/26 01:57:18;0.00;0.00;0.62;0.00;0.00;0.62;2.20;1.30;;;27.10;27.60;;;;;;2234023;62;20348;-61
2022/09/26 02:00:10;0.00;0.00;0.62;0.00;0.00;0.62;1.83;1.20;;;27.00;27.50;;;;;;2232955;62;20364;-61
2022/09/26 02:03:02;0.00;0.00;0.62;0.00;0.00;0.62;1.80;1.20;;;27.00;27.50;;;;;;2233852;62;20450;-61
2022/09/26 02:05:53;0.00;0.00;0.62;0.00;0.00;0.62;1.83;1.20;;;27.00;27.50;;;;;;2234169;62;20360;-61
2022/09/26 02:08:40;0.00;0.00;0.62;0.00;0.00;0.62;1.80;1.10;;;27.00;27.50;;;;;;2232475;62;20494;-61
2022/09/26 02:11:27;0.00;0.00;0.62;0.00;0.00;0.62;2.13;1.23;;;27.00;27.50;;;;;;2233682;62;20405;-61
2022/09/26 02:14:18;0.00;0.00;0.62;0.00;0.00;0.62;2.07;1.20;;;27.00;27.50;;;;;;2233253;62;20436;-61
2022/09/26 02:17:09;0.00;0.00;0.62;0.00;0.00;0.62;2.63;1.70;;;26.90;27.50;;;;;;2233190;62;20356;-61
2022/09/26 02:19:57;0.00;0.00;0.62;0.00;0.00;0.62;1.87;0.97;;;26.90;27.50;;;;;;2234138;62;20420;-61
2022/09/26 02:22:44;0.00;0.00;0.62;0.00;0.00;0.62;1.70;1.20;;;26.90;27.40;;;;;;2233425;62;20508;-61
2022/09/26 02:25:33;0.00;0.00;0.62;0.00;0.00;0.62;1.60;0.97;;;26.90;27.50;;;;;;2233678;62;20356;-61
2022/09/26 02:28:18;0.00;0.00;0.62;0.00;0.00;0.62;1.83;1.10;;;26.80;27.40;;;;;;2236157;62;20545;-61
2022/09/26 02:31:07;0.00;0.00;0.62;0.00;0.00;0.62;2.60;1.07;;;26.80;27.50;;;;;;2232898;62;20392;-61
2022/09/26 02:33:52;0.00;0.00;0.62;0.00;0.00;0.62;1.50;1.03;;;26.80;27.50;;;;;;2231747;62;20465;-61
2022/09/26 02:36:37;0.00;0.00;0.62;0.00;0.00;0.62;2.30;1.20;;;26.70;27.50;;;;;;2229032;62;20445;-61
2022/09/26 02:39:24;0.00;0.00;0.62;0.00;0.00;0.62;2.43;1.30;;;26.70;27.40;;;;;;2232009;62;20382;-61
2022/09/26 02:42:24;0.00;0.00;0.62;0.00;0.00;0.62;1.53;0.90;;;26.70;28.00;;;;;;2229510;62;20483;-61
2022/09/26 02:45:27;0.00;0.00;0.62;0.00;0.00;0.62;3.13;1.50;;;26.60;27.40;;;;;;2228577;62;20405;-61
2022/09/26 02:48:47;0.00;0.00;0.62;0.00;0.00;0.62;1.63;0.90;;;26.60;27.50;;;;;;2229414;62;20396;-61
2022/09/26 02:51:54;0.00;0.00;0.62;0.00;0.00;0.62;1.67;0.87;;;26.60;27.50;;;;;;2229139;62;20437;-61
2022/09/26 02:54:52;0.00;0.00;0.62;0.00;0.00;0.62;1.80;1.33;;;26.60;27.50;;;;;;2229883;62;20576;-62
2022/09/26 02:57:51;0.00;0.00;0.62;0.00;0.00;0.62;1.70;1.10;;;26.50;27.50;;;;;;2229728;62;20361;-61
2022/09/26 03:00:52;0.00;0.00;0.62;0.00;0.00;0.62;2.70;1.43;;;26.50;27.50;;;;;;2228922;62;20361;-61
2022/09/26 03:03:42;0.00;0.00;0.62;0.00;0.00;0.62;1.80;0.97;;;26.50;27.50;;;;;;2229604;62;20414;-61
2022/09/26 03:06:35;0.00;0.00;0.62;0.00;0.00;0.62;1.63;1.10;;;26.50;27.50;;;;;;2229224;62;20381;-61
2022/09/26 03:09:24;0.00;0.00;0.62;0.00;0.00;0.62;1.73;1.10;;;26.40;27.40;;;;;;2229266;62;20772;-61
2022/09/26 03:12:12;0.00;0.00;0.62;0.00;0.00;0.62;1.43;0.90;;;26.40;27.40;;;;;;2229521;62;20397;-61
2022/09/26 03:14:59;0.00;0.00;0.62;0.00;0.00;0.62;2.30;1.10;;;26.40;27.50;;;;;;2231383;62;20382;-61
2022/09/26 03:17:50;0.00;0.00;0.62;0.00;0.00;0.62;1.93;1.20;;;26.40;27.50;;;;;;2229331;62;20404;-61
2022/09/26 03:20:36;0.00;0.00;0.62;0.00;0.00;0.62;2.47;1.20;;;26.40;27.50;;;;;;2229364;62;20365;-61
2022/09/26 03:23:22;0.00;0.00;0.62;0.00;0.00;0.62;1.73;1.03;;;26.30;27.40;;;;;;2228893;62;20725;-61
2022/09/26 03:26:12;0.00;0.00;0.62;0.00;0.00;0.62;1.77;1.00;;;26.30;27.40;;;;;;2229509;62;20372;-61
2022/09/26 03:29:09;0.00;0.00;0.62;0.00;0.00;0.62;1.83;1.00;;;26.30;27.40;;;;;;2228738;62;20434;-61
2022/09/26 03:31:54;0.00;0.00;0.62;0.00;0.00;0.62;1.67;1.10;;;26.30;27.40;;;;;;2229351;62;20372;-61
2022/09/26 03:34:39;0.00;0.00;0.62;0.00;0.00;0.62;2.47;1.13;;;26.20;27.40;;;;;;2233204;62;20375;-63
2022/09/26 03:37:24;0.00;0.00;0.62;0.00;0.00;0.62;1.40;0.80;;;26.20;27.40;;;;;;2232174;62;20391;-61
2022/09/26 03:40:11;0.00;0.00;0.62;0.00;0.00;0.62;2.13;1.30;;;26.20;27.30;;;;;;2233277;62;20433;-60
2022/09/26 03:43:26;0.00;0.00;0.62;0.00;0.00;0.62;4.13;1.20;;;26.20;27.30;;;;;;2235454;62;20421;-61
2022/09/26 03:46:14;0.00;0.00;0.62;0.00;0.00;0.62;1.60;1.10;;;26.20;27.30;;;;;;2233056;62;20381;-61
2022/09/26 03:48:59;0.00;0.00;0.62;0.00;0.00;0.62;2.07;1.10;;;26.10;27.30;;;;;;2233563;62;20861;-61
2022/09/26 03:51:44;0.00;0.00;0.62;0.00;0.00;0.62;2.50;1.30;;;26.10;27.80;;;;;;2232335;62;20396;-61
2022/09/26 03:54:30;0.00;0.00;0.62;0.00;0.00;0.62;2.00;0.90;;;26.10;27.40;;;;;;2233392;62;20413;-61
2022/09/26 03:57:16;0.00;0.00;0.62;0.00;0.00;0.62;1.50;0.93;;;26.10;27.40;;;;;;2234028;62;20360;-61
2022/09/26 04:00:11;0.00;0.00;0.62;0.00;0.00;0.62;1.60;1.30;;;26.00;27.30;;;;;;2233362;62;20577;-61
2022/09/26 04:03:04;0.00;0.00;0.62;0.00;0.00;0.62;1.70;1.17;;;26.00;27.30;;;;;;2234396;62;20765;-61
2022/09/26 04:05:55;0.00;0.00;0.62;0.00;0.00;0.62;1.37;0.90;;;26.00;27.30;;;;;;2233376;62;20356;-61
2022/09/26 04:08:41;0.00;0.00;0.62;0.00;0.00;0.62;1.60;1.10;;;26.00;27.30;;;;;;2233465;62;20658;-61
2022/09/26 04:11:28;0.00;0.00;0.62;0.00;0.00;0.62;1.80;1.20;;;26.00;27.90;;;;;;2236767;62;20377;-61
2022/09/26 04:14:13;0.00;0.00;0.62;0.00;0.00;0.62;2.30;1.00;;;25.90;27.30;;;;;;2232995;62;20380;-60
2022/09/26 04:16:59;0.00;0.00;0.62;0.00;0.00;0.62;1.90;1.33;;;25.90;27.30;;;;;;2233876;62;20367;-60
2022/09/26 04:19:48;0.00;0.00;0.62;0.00;0.00;0.62;1.60;1.00;;;25.90;27.30;;;;;;2233585;62;20356;-60
2022/09/26 04:22:33;0.00;0.00;0.62;0.00;0.00;0.62;1.70;1.20;;;25.90;27.30;;;;;;2233611;62;20371;-60
2022/09/26 04:25:18;0.00;0.00;0.62;0.00;0.00;0.62;1.70;1.30;;;25.80;27.30;;;;;;2234102;62;20360;-62
2022/09/26 04:28:02;0.00;0.00;0.62;0.00;0.00;0.62;3.43;1.20;;;25.80;27.30;;;;;;2232945;62;20431;-60
2022/09/26 04:30:48;0.00;0.00;0.62;0.00;0.00;0.62;1.50;0.90;;;25.80;27.30;;;;;;2233734;62;20610;-62
2022/09/26 04:33:33;0.00;0.00;0.62;0.00;0.00;0.62;2.00;1.40;;;25.80;27.40;;;;;;2232613;62;20385;-62
2022/09/26 04:36:27;0.00;0.00;0.62;0.00;0.00;0.62;2.23;1.20;;;25.80;27.30;;;;;;2228798;62;20592;-61
2022/09/26 04:39:12;0.00;0.00;0.62;0.00;0.00;0.62;2.07;1.00;;;25.80;27.40;;;;;;2230028;62;20518;-62
2022/09/26 04:41:57;0.00;0.00;0.62;0.00;0.00;0.62;2.23;1.23;;;25.80;27.30;;;;;;2229638;62;20426;-61
2022/09/26 04:44:42;0.00;0.00;0.62;0.00;0.00;0.62;1.77;1.23;;;25.80;27.40;;;;;;2229779;62;20400;-61
2022/09/26 04:47:27;0.00;0.00;0.62;0.00;0.00;0.62;2.70;1.23;;;25.70;27.30;;;;;;2230236;62;20360;-60
2022/09/26 04:50:50;0.00;0.00;0.62;0.00;0.00;0.62;1.90;1.10;;;25.70;27.30;;;;;;2232548;62;20360;-61
2022/09/26 04:53:38;0.00;0.00;0.62;0.00;0.00;0.62;2.00;1.10;;;25.70;27.30;;;;;;2233549;62;20444;-62
2022/09/26 04:56:38;0.00;0.00;0.62;0.00;0.00;0.62;1.70;1.17;;;25.70;27.80;;;;;;2232182;62;20389;-62
2022/09/26 04:59:25;0.00;0.00;0.62;0.00;0.00;0.62;2.53;1.13;;;25.70;27.30;;;;;;2229646;62;20377;-62
2022/09/26 05:02:19;0.00;0.00;0.62;0.00;0.00;0.62;3.60;1.70;;;25.70;27.30;;;;;;2229984;62;20404;-61
2022/09/26 05:05:05;0.00;0.00;0.62;0.00;0.00;0.62;2.17;1.40;;;25.60;27.20;;;;;;2229237;62;20364;-62
2022/09/26 05:07:51;0.00;0.00;0.62;0.00;0.00;0.62;2.37;1.50;;;25.60;27.20;;;;;;2229884;62;20465;-62
2022/09/26 05:10:37;0.00;0.00;0.62;0.00;0.00;0.62;3.27;1.47;;;25.60;27.70;;;;;;2229961;62;20361;-61
2022/09/26 05:13:22;0.00;0.00;0.62;0.00;0.00;0.62;6.00;1.70;;;25.50;27.20;;;;;;2228835;62;20376;-61
2022/09/26 05:16:08;0.00;0.00;0.62;0.00;0.00;0.62;3.10;1.60;;;25.50;27.20;;;;;;2229802;62;20386;-61
2022/09/26 05:18:55;0.00;0.00;0.62;0.00;0.00;0.62;2.33;1.50;;;25.50;27.20;;;;;;2229365;62;20381;-61
2022/09/26 05:21:42;0.00;0.00;0.62;0.00;0.00;0.62;2.00;1.33;;;25.50;27.20;;;;;;2229359;62;20654;-61
2022/09/26 05:27:31;0.00;0.00;0.62;0.00;0.00;0.62;3.50;1.47;;;25.40;27.20;;;;;;2228980;62;20406;-61
2022/09/26 05:30:17;0.00;0.00;0.62;0.00;0.00;0.62;2.47;1.57;;;25.40;27.20;;;;;;2229747;62;20805;-62
2022/09/26 05:33:02;0.00;0.00;0.62;0.00;0.00;0.62;2.50;1.63;;;25.40;27.70;;;;;;2230584;62;20475;-62
2022/09/26 05:35:49;0.00;0.00;0.62;0.00;0.00;0.62;2.23;1.40;;;25.40;27.20;;;;;;2232920;62;20367;-62
2022/09/26 05:38:34;0.00;0.00;0.62;0.00;0.00;0.62;2.80;1.70;;;25.30;27.10;;;;;;2233612;62;20387;-62
2022/09/26 05:41:20;0.00;0.00;0.62;0.00;0.00;0.62;2.60;1.50;;;25.30;27.10;;;;;;2233310;62;20525;-61
2022/09/26 05:44:06;0.00;0.00;0.62;0.00;0.00;0.62;3.90;1.80;;;25.20;27.00;;;;;;2233069;62;20364;-63
2022/09/26 05:46:55;0.00;0.00;0.62;0.00;0.00;0.62;3.70;1.37;;;25.20;27.20;;;;;;2233633;62;20375;-62
2022/09/26 05:49:39;0.00;0.00;0.62;0.00;0.00;0.62;3.30;2.13;;;25.20;27.20;;;;;;2232939;62;20410;-61
2022/09/26 05:52:27;0.00;0.00;0.62;0.00;0.00;0.62;3.23;1.50;;;25.20;27.30;;;;;;2233529;62;20364;-61
2022/09/26 05:55:12;0.00;0.00;0.62;0.00;0.00;0.62;1.90;1.10;;;25.20;27.30;;;;;;2233578;62;20463;-61
2022/09/26 05:58:31;0.00;0.00;0.62;0.00;0.00;0.62;2.13;1.47;;;25.20;27.30;;;;;;2231284;62;20618;-62
2022/09/26 06:01:46;0.00;0.00;0.62;0.00;0.00;0.62;1.87;1.17;;;25.20;27.40;;;;;;2227508;62;20399;-62
2022/09/26 06:04:43;0.00;0.00;0.62;0.00;0.00;0.62;3.10;1.83;;;25.20;27.40;;;;;;2232687;62;20670;-61
2022/09/26 06:07:52;0.00;0.00;0.62;0.00;0.00;0.62;3.50;2.03;;;25.20;27.40;;;;;;2230073;62;20427;-61
2022/09/26 06:11:01;0.00;0.00;0.62;0.00;0.00;0.62;2.77;1.73;;;25.20;27.30;;;;;;2233415;62;20420;-61
2022/09/26 06:13:47;0.00;0.00;0.62;0.00;0.00;0.62;3.70;1.83;;;25.20;27.30;;;;;;2233145;62;20482;-61
2022/09/26 06:16:33;0.00;0.00;0.62;0.00;0.00;0.62;3.20;2.00;;;25.20;27.20;;;;;;2233346;62;20826;-61
2022/09/26 06:19:19;0.00;0.00;0.62;0.00;0.00;0.62;2.37;1.40;;;25.10;27.10;;;;;;2232584;62;20376;-60
2022/09/26 06:22:03;0.00;0.00;0.62;0.00;0.00;0.62;3.47;1.73;;;25.10;27.20;;;;;;2231457;62;20381;-60
2022/09/26 06:24:50;0.00;0.00;0.62;0.00;0.00;0.62;3.30;1.60;;;25.10;27.20;;;;;;2229885;62;20421;-60
2022/09/26 06:27:37;0.00;0.00;0.62;0.00;0.00;0.62;2.50;1.40;;;25.10;27.20;;;;;;2459105;54;20400;-59
2022/09/26 06:30:24;0.00;0.00;0.62;0.00;0.00;0.62;2.90;1.47;;;25.10;27.30;;;;;;2236011;62;20368;-62
2022/09/26 06:33:10;0.00;0.00;0.62;0.00;0.00;0.62;3.40;1.60;;;25.00;27.30;;;;;;2232660;62;20380;-61
2022/09/26 06:36:12;0.00;0.00;0.62;0.00;0.00;0.62;3.23;1.50;;;25.00;27.30;;;;;;2233148;62;20363;-61
2022/09/26 06:38:57;0.00;0.00;0.62;0.00;0.00;0.62;3.43;1.53;;;25.00;27.30;;;;;;2231779;62;20518;-61
2022/09/26 06:41:41;0.00;0.00;0.62;0.00;0.00;0.62;2.00;1.40;;;25.00;27.40;;;;;;2232343;62;20386;-62
2022/09/26 06:44:47;0.00;0.00;0.62;0.00;0.00;0.62;2.50;1.63;;;25.00;27.30;;;;;;2233588;62;20352;-60
2022/09/26 06:47:46;0.00;0.00;0.62;0.00;0.00;0.62;3.30;1.57;;;25.00;27.30;;;;;;2235320;62;20404;-59
2022/09/26 06:50:51;0.00;0.00;0.62;0.00;0.00;0.62;2.20;1.40;;;25.00;27.40;;;;;;2235628;62;20424;-58
2022/09/26 06:53:38;0.00;0.00;0.62;0.00;0.00;0.62;3.13;1.40;;;25.00;27.30;;;;;;2233643;62;20417;-58
2022/09/26 06:56:24;0.00;0.00;0.62;0.00;0.00;0.62;2.10;1.30;;;25.00;27.30;;;;;;2235248;62;20584;-59
2022/09/26 06:59:10;0.00;0.00;0.62;0.00;0.00;0.62;3.67;1.93;;;25.00;27.30;;;;;;2241116;59;20391;-58
2022/09/26 07:02:01;0.00;0.00;0.62;0.00;0.00;0.62;3.30;1.67;;;25.00;27.30;;;;;;2239964;62;20367;-61
2022/09/26 07:05:16;0.00;0.00;0.62;0.00;0.00;0.62;2.57;1.80;;;25.00;27.30;;;;;;2237071;62;20795;-59
2022/09/26 07:08:10;0.00;0.00;0.62;0.00;0.00;0.62;2.20;1.27;;;25.00;27.20;;;;;;2237693;62;20496;-59
2022/09/26 07:11:00;0.00;0.00;0.62;0.00;0.00;0.62;2.57;1.87;;;25.00;27.30;;;;;;2236276;62;20599;-58
2022/09/26 07:13:46;0.00;0.00;0.62;0.00;0.00;0.62;2.63;1.43;;;24.90;27.20;;;;;;2237165;62;20368;-61
2022/09/26 07:16:31;0.00;0.00;0.62;0.00;0.00;0.62;3.20;1.60;;;24.90;27.20;;;;;;2240035;62;20367;-58
2022/09/26 07:19:30;0.00;0.00;0.62;0.00;0.00;0.62;3.20;1.40;;;24.90;27.80;;;;;;2236476;62;20456;-59
2022/09/26 07:22:26;0.00;0.00;0.62;0.00;0.00;0.62;4.13;1.57;;;24.90;27.30;;;;;;2238211;62;20376;-64
2022/09/26 07:25:13;0.00;0.00;0.62;0.00;0.00;0.62;2.77;1.90;;;24.90;27.30;;;;;;2236725;62;20360;-64
2022/09/26 07:28:01;0.00;0.00;0.62;0.00;0.00;0.62;4.00;1.50;;;24.90;27.30;;;;;;2239103;62;20438;-67
2022/09/26 07:31:06;0.00;0.00;0.62;0.00;0.00;0.62;4.33;2.20;;;24.90;27.40;;;;;;2237589;62;20370;-64
2022/09/26 07:34:18;0.00;0.00;0.62;0.00;0.00;0.62;3.43;1.80;;;24.80;27.30;;;;;;2237540;62;20448;-67
2022/09/26 07:37:03;0.00;0.00;0.62;0.00;0.00;0.62;3.23;1.53;;;24.90;27.40;;;;;;2240366;62;20404;-65
2022/09/26 07:39:48;0.00;0.00;0.62;0.00;0.00;0.62;2.50;1.60;;;24.80;27.30;;;;;;2237746;62;20400;-61
2022/09/26 07:42:36;0.00;0.00;0.62;0.00;0.00;0.62;2.03;1.70;;;24.80;27.30;;;;;;2236061;62;20378;-61
2022/09/26 07:51:56;0.00;0.00;0.62;0.00;0.00;0.62;2.83;1.20;;;24.80;27.50;;;;;;2236676;62;20609;-64
2022/09/26 07:54:46;0.00;0.00;0.62;0.00;0.00;0.62;5.70;1.87;;;24.80;27.60;;;;;;2233625;62;20630;-70
2022/09/26 07:57:58;0.00;0.00;0.62;0.00;0.00;0.62;1.80;1.20;;;24.90;27.60;;;;;;2232724;62;20476;-66
2022/09/26 08:00:58;0.00;0.00;0.62;0.00;0.00;0.62;1.40;0.80;;;24.90;27.60;;;;;;2236319;62;20360;-61
2022/09/26 08:04:05;0.00;0.00;0.62;0.00;0.00;0.62;1.70;1.00;;;25.00;27.70;;;;;;2233732;62;20594;-62
2022/09/26 08:06:55;0.00;0.00;0.62;0.00;0.00;0.62;2.00;1.00;;;25.00;27.70;;;;;;2233734;62;20421;-61
2022/09/26 08:09:41;0.00;0.00;0.62;0.00;0.00;0.62;2.37;1.20;;;25.00;27.70;;;;;;2236283;62;20435;-61
2022/09/26 08:13:00;0.00;0.00;0.62;0.00;0.00;0.62;1.97;1.07;;;25.10;27.80;;;;;;2234065;62;20720;-61
2022/09/26 08:16:06;0.00;0.00;0.62;0.00;0.00;0.62;1.80;1.13;;;25.10;27.70;;;;;;2233954;62;20400;-61
2022/09/26 08:18:58;0.00;0.00;0.62;0.00;0.00;0.62;1.90;0.90;;;25.10;27.70;;;;;;2241051;62;20449;-62
2022/09/26 08:21:44;0.00;0.00;0.62;0.00;0.00;0.62;1.70;1.03;;;25.20;27.80;;;;;;2232229;62;20399;-61
2022/09/26 08:24:29;0.00;0.00;0.62;0.00;0.00;0.62;1.60;1.00;;;25.20;27.80;;;;;;2229991;62;20405;-62
2022/09/26 08:27:35;0.00;0.00;0.62;0.00;0.00;0.62;1.97;1.20;;;25.20;27.80;;;;;;2232267;62;20743;-63
2022/09/26 08:30:22;0.00;0.00;0.62;0.00;0.00;0.62;1.67;1.07;;;25.30;27.80;;;;;;2230374;62;20373;-64
2022/09/26 08:33:14;0.00;0.00;0.62;0.00;0.00;0.62;1.50;1.00;;;25.30;27.80;;;;;;2236400;62;20375;-61
2022/09/26 08:36:04;0.00;0.00;0.62;0.00;0.00;0.62;1.90;1.20;;;25.30;27.80;;;;;;2237427;62;20367;-64
2022/09/26 08:39:01;0.00;0.00;0.62;0.00;0.00;0.62;1.90;1.20;;;25.40;27.90;;;;;;2237851;62;20434;-61
2022/09/26 08:42:40;0.00;0.00;0.62;0.00;0.00;0.62;1.93;1.10;;;25.40;27.80;;;;;;2239034;62;20362;-60
2022/09/26 08:49:31;0.00;0.00;0.62;0.00;0.00;0.62;1.67;1.07;;;25.50;27.90;;;;;;2237824;62;20408;-60
2022/09/26 08:52:32;0.00;0.00;0.62;0.00;0.00;0.62;2.10;1.33;;;25.50;27.90;;;;;;2237524;62;20367;-63
2022/09/26 08:55:23;0.00;0.00;0.62;0.00;0.00;0.62;1.93;1.57;;;25.60;27.90;;;;;;2236990;62;20778;-67
2022/09/26 08:58:17;0.00;0.00;0.62;0.00;0.00;0.62;2.27;1.53;;;25.60;27.90;;;;;;2237297;62;20655;-67
2022/09/26 09:01:11;0.00;0.00;0.62;0.00;0.00;0.62;2.33;1.60;;;25.60;27.90;;;;;;2237371;62;20367;-64
2022/09/26 09:04:24;0.00;0.00;0.62;0.00;0.00;0.62;1.90;1.37;;;25.60;27.90;;;;;;2238094;62;20375;-65
2022/09/26 09:07:25;0.00;0.00;0.62;0.00;0.00;0.62;2.27;1.50;;;25.70;27.90;;;;;;2237582;62;20391;-65
2022/09/26 09:10:19;0.00;0.00;0.62;0.00;0.00;0.62;2.43;1.60;;;25.70;27.90;;;;;;2237730;62;20380;-67
2022/09/26 09:13:46;0.00;0.00;0.62;0.00;0.00;0.62;2.73;1.30;;;25.70;27.90;;;;;;2237613;62;20362;-65
2022/09/26 09:17:08;0.00;0.00;0.62;0.00;0.00;0.62;2.30;1.50;;;25.80;27.90;;;;;;2236984;62;20411;-63
2022/09/26 09:20:18;0.00;0.00;0.62;0.00;0.00;0.62;1.80;1.33;;;25.80;28.40;;;;;;2237706;62;20364;-63
2022/09/26 09:23:49;0.00;0.00;0.62;0.00;0.00;0.62;1.80;1.20;;;25.80;27.80;;;;;;2237627;62;20427;-62
2022/09/26 09:26:48;0.00;0.00;0.62;0.00;0.00;0.62;2.23;1.50;;;25.80;27.80;;;;;;2240197;62;20398;-66
2022/09/26 09:30:10;0.00;0.00;0.62;0.00;0.00;0.62;1.60;1.20;;;25.80;27.80;;;;;;2237515;62;20456;-62
2022/09/26 09:33:18;0.00;0.00;0.62;0.00;0.00;0.62;2.87;1.20;;;25.90;27.90;;;;;;2236871;62;20488;-63
2022/09/26 09:36:13;0.00;0.00;0.62;0.00;0.00;0.62;2.73;1.40;;;25.90;27.90;;;;;;2233487;62;20357;-63
2022/09/26 09:39:25;0.00;0.00;0.62;0.00;0.00;0.62;2.50;2.00;;;25.90;27.90;;;;;;2235713;62;20676;-62
2022/09/26 09:42:26;0.00;0.00;0.62;0.00;0.00;0.62;2.03;1.30;;;25.90;27.80;;;;;;2236377;62;20387;-63
2022/09/26 09:45:17;0.00;0.00;0.62;0.00;0.00;0.62;2.20;1.20;;;26.00;27.80;;;;;;2233861;62;20639;-63
2022/09/26 09:48:03;0.00;0.00;0.62;0.00;0.00;0.62;2.50;1.30;;;26.00;27.80;;;;;;2233096;62;20384;-62
2022/09/26 09:51:04;0.00;0.00;0.62;0.00;0.00;0.62;1.83;1.60;;;26.00;27.80;;;;;;2233519;62;20368;-62
2022/09/26 09:54:24;0.00;0.00;0.62;0.00;0.00;0.62;1.90;1.20;;;26.00;27.70;;;;;;2232781;62;20385;-63
2022/09/26 09:57:32;0.00;0.00;0.62;0.00;0.00;0.62;1.87;1.37;;;26.00;27.70;;;;;;2235821;62;20376;-62
2022/09/26 10:00:19;0.00;0.00;0.62;0.00;0.00;0.62;2.40;1.57;;;26.10;27.70;;;;;;2233356;62;20386;-62
2022/09/26 10:03:26;0.00;0.00;0.62;0.00;0.00;0.62;1.87;1.50;;;26.10;27.70;;;;;;2236323;62;20367;-63
2022/09/26 10:06:12;0.00;0.00;0.62;0.00;0.00;0.62;1.50;1.10;;;26.10;27.70;;;;;;2233441;62;20368;-63
2022/09/26 10:09:14;0.00;0.00;0.62;0.00;0.00;0.62;1.77;1.03;;;26.10;27.70;;;;;;2232577;62;20407;-62
2022/09/26 10:12:23;0.00;0.00;0.62;0.00;0.00;0.62;1.60;1.13;;;26.10;27.60;;;;;;2234118;62;20405;-63
2022/09/26 10:15:26;0.00;0.00;0.62;0.00;0.00;0.62;1.70;1.20;;;26.20;27.70;;;;;;2233280;62;20357;-63
2022/09/26 10:18:24;0.00;0.00;0.62;0.00;0.00;0.62;2.30;1.40;;;26.20;27.60;;;;;;2233844;62;20388;-62
2022/09/26 10:21:17;0.00;0.00;0.62;0.00;0.00;0.62;2.20;1.40;;;26.20;27.60;;;;;;2540238;46;20422;-62
2022/09/26 10:24:05;0.00;0.00;0.62;0.00;0.00;0.62;2.37;1.33;;;26.20;27.60;;;;;;2231540;62;20373;-62
2022/09/26 10:27:21;0.00;0.00;0.62;0.00;0.00;0.62;1.90;1.00;;;26.20;27.50;;;;;;2232267;62;20388;-62
2022/09/26 10:30:24;0.00;0.00;0.62;0.00;0.00;0.62;1.40;0.90;;;26.20;27.50;;;;;;2231921;62;20471;-62
2022/09/26 10:33:25;0.00;0.00;0.62;0.00;0.00;0.62;1.87;1.27;;;26.20;27.50;;;;;;2233065;62;20379;-62
2022/09/26 10:36:28;0.00;0.00;0.62;0.00;0.00;0.62;1.97;1.20;;;26.20;27.50;;;;;;2535334;46;20361;-63
2022/09/26 10:42:24;0.00;0.00;0.62;0.00;0.00;0.62;1.77;1.20;;;26.20;27.40;;;;;;2229369;62;20396;-62
2022/09/26 10:45:16;0.00;0.00;0.62;0.00;0.00;0.62;1.60;1.00;;;26.20;27.40;;;;;;2231589;62;20421;-61
2022/09/26 10:48:47;0.00;0.00;0.62;0.00;0.00;0.62;2.07;1.20;;;26.30;27.40;;;;;;2229867;62;20507;-62
2022/09/26 10:52:01;0.00;0.00;0.62;0.00;0.00;0.62;1.60;1.00;;;26.30;27.40;;;;;;2231462;62;20401;-62
2022/09/26 10:54:56;0.00;0.00;0.62;0.00;0.00;0.62;1.73;1.03;;;26.30;27.40;;;;;;2233789;62;20365;-62
2022/09/26 10:57:45;0.00;0.00;0.62;0.00;0.00;0.62;1.90;1.13;;;26.30;27.40;;;;;;2232800;62;20712;-60
2022/09/26 11:00:41;0.00;0.00;0.62;0.00;0.00;0.62;1.50;1.20;;;26.30;27.40;;;;;;2235523;62;20368;-62
2022/09/26 11:03:41;0.00;0.00;0.62;0.00;0.00;0.62;1.60;1.10;;;26.30;27.40;;;;;;2233895;62;20400;-63
2022/09/26 11:06:58;0.00;0.00;0.62;0.00;0.00;0.62;1.50;1.10;;;26.30;27.40;;;;;;2233080;62;20477;-62
2022/09/26 11:10:00;0.00;0.00;0.62;0.00;0.00;0.62;1.90;1.40;;;26.30;27.30;;;;;;2233482;62;20748;-62
2022/09/26 11:13:01;0.00;0.00;0.62;0.00;0.00;0.62;1.63;1.00;;;26.30;27.30;;;;;;2233202;62;20571;-63
2022/09/26 11:16:00;0.00;0.00;0.62;0.00;0.00;0.62;1.90;1.20;;;26.30;27.30;;;;;;2232852;62;20408;-62
2022/09/26 11:18:57;0.00;0.00;0.62;0.00;0.00;0.62;2.50;1.37;;;26.30;27.30;;;;;;2233265;62;20387;-62
2022/09/26 11:21:46;0.00;0.00;0.62;0.00;0.00;0.62;2.13;1.10;;;26.30;27.30;;;;;;2233128;62;20363;-61
2022/09/26 11:24:41;0.00;0.00;0.62;0.00;0.00;0.62;1.80;0.90;;;26.30;27.30;;;;;;2233156;62;20604;-62
2022/09/26 11:27:34;0.00;0.00;0.62;0.00;0.00;0.62;2.00;1.10;;;26.30;27.30;;;;;;2658528;46;20396;-62
2022/09/26 11:30:22;0.00;0.00;0.62;0.00;0.00;0.62;1.50;0.90;;;26.30;27.30;;;;;;2231528;62;20482;-63
2022/09/26 11:33:18;0.00;0.00;0.62;0.00;0.00;0.62;1.40;0.80;;;26.30;27.30;;;;;;2232026;62;20455;-61
2022/09/26 11:36:25;0.00;0.00;0.62;0.00;0.00;0.62;1.63;0.90;;;26.30;27.30;;;;;;2229549;62;20377;-61
2022/09/26 11:39:34;0.00;0.00;0.62;0.00;0.00;0.62;1.60;0.90;;;26.30;27.30;;;;;;2231885;62;20389;-61
2022/09/26 11:42:35;0.00;0.00;0.62;0.00;0.00;0.62;1.80;0.90;;;26.40;27.30;;;;;;2231795;62;20369;-61
2022/09/26 11:45:32;0.00;0.00;0.62;0.00;0.00;0.62;1.43;0.90;;;26.40;27.30;;;;;;2231523;62;20592;-63